createdAt,value
2022-10-21T00:03:51.424Z,12.47
2022-10-21T00:08:52.987Z,12.42
2022-10-21T00:13:54.564Z,12.36
2022-10-21T00:18:56.086Z,12.45
2022-10-21T00:23:57.588Z,12.38
2022-10-21T00:28:59.117Z,12.34
2022-10-21T00:34:00.657Z,12.39
2022-10-21T00:39:02.171Z,12.32
2022-10-21T00:44:07.182Z,12.33
2022-10-21T00:49:16.420Z,12.32
2022-10-21T00:54:18.987Z,12.31
2022-10-21T00:59:22.794Z,12.39
2022-10-21T01:04:24.285Z,12.33
2022-10-21T01:09:26.098Z,12.38
2022-10-21T01:14:37.947Z,12.36
2022-10-21T01:19:49.706Z,12.22
2022-10-21T01:25:18.226Z,12.34
2022-10-21T01:30:39.707Z,12.31
2022-10-21T01:35:46.867Z,12.31
2022-10-21T01:41:19.306Z,12.28
2022-10-21T01:46:51.661Z,12.27
2022-10-21T01:51:54.182Z,12.25
2022-10-21T01:56:56.504Z,12.30
2022-10-21T02:02:00.480Z,12.28
2022-10-21T02:07:02.111Z,12.23
2022-10-21T02:12:04.750Z,12.27
2022-10-21T02:17:06.928Z,12.25
2022-10-21T02:22:10.763Z,12.27
2022-10-21T02:27:12.335Z,12.13
2022-10-21T02:32:26.032Z,12.22
2022-10-21T02:37:33.155Z,12.21
2022-10-21T02:42:38.571Z,12.21
2022-10-21T02:47:40.555Z,12.11
2022-10-21T02:52:42.276Z,12.19
2022-10-21T02:57:43.809Z,12.18
2022-10-21T03:02:45.335Z,12.13
2022-10-21T03:07:46.850Z,12.23
2022-10-21T03:12:49.995Z,12.20
2022-10-21T03:17:51.509Z,12.07
2022-10-21T03:22:52.995Z,12.10
2022-10-21T03:27:54.613Z,12.15
2022-10-21T03:32:56.144Z,12.13
2022-10-21T03:43:04.197Z,12.01
2022-10-21T03:48:05.822Z,12.06
2022-10-21T03:53:18.563Z,12.00
2022-10-21T03:58:25.737Z,11.90
2022-10-21T04:03:27.673Z,11.98
2022-10-21T04:08:29.210Z,11.92
2022-10-21T04:13:31.420Z,11.94
2022-10-21T04:18:32.965Z,11.92
2022-10-21T04:23:34.939Z,11.81
2022-10-21T04:28:36.463Z,11.70
2022-10-21T04:33:37.955Z,11.76
2022-10-21T04:38:39.669Z,11.75
2022-10-21T04:43:41.207Z,11.74
2022-10-21T04:48:43.459Z,11.83
2022-10-21T04:53:45.005Z,11.80
2022-10-21T04:58:48.520Z,11.90
2022-10-21T05:03:50.042Z,11.83
2022-10-21T05:08:51.685Z,11.87
2022-10-21T05:13:53.234Z,11.80
2022-10-21T05:18:54.715Z,11.70
2022-10-21T05:23:56.202Z,11.75
2022-10-21T05:28:58.306Z,11.64
2022-10-21T05:33:59.936Z,11.61
2022-10-21T05:39:01.531Z,11.51
2022-10-21T05:44:03.338Z,11.59
2022-10-21T05:49:04.950Z,11.57
2022-10-21T05:54:06.515Z,11.58
2022-10-21T05:59:10.220Z,11.62
2022-10-21T06:04:11.957Z,11.61
2022-10-21T06:09:13.643Z,11.57
2022-10-21T06:14:15.205Z,11.59
2022-10-21T06:19:16.787Z,11.65
2022-10-21T06:24:18.278Z,11.67
2022-10-21T06:29:19.793Z,11.68
2022-10-21T06:34:21.420Z,11.75
2022-10-21T06:39:25.181Z,11.72
2022-10-21T06:44:29.051Z,11.80
2022-10-21T06:49:31.321Z,11.81
2022-10-21T06:54:32.893Z,11.88
2022-10-21T06:59:34.407Z,11.92
2022-10-21T07:04:35.915Z,11.90
2022-10-21T07:09:37.600Z,11.99
2022-10-21T07:14:39.148Z,12.00
2022-10-21T07:19:40.648Z,12.19
2022-10-21T07:24:42.156Z,12.28
2022-10-21T07:29:43.658Z,12.30
2022-10-21T07:34:45.173Z,12.33
2022-10-21T07:39:46.741Z,12.32
2022-10-21T07:44:50.414Z,12.32
2022-10-21T07:49:52.999Z,12.38
2022-10-21T07:54:54.538Z,12.31
2022-10-21T07:59:56.036Z,12.37
2022-10-21T08:04:57.568Z,12.39
2022-10-21T08:09:59.656Z,12.42
2022-10-21T08:15:01.150Z,12.54
2022-10-21T08:20:02.929Z,12.53
2022-10-21T08:25:04.883Z,12.47
2022-10-21T08:30:06.728Z,12.59
2022-10-21T08:35:08.706Z,12.62
2022-10-21T08:40:10.814Z,12.70
2022-10-21T08:45:20.651Z,12.69
2022-10-21T08:50:25.033Z,12.77
2022-10-21T08:55:38.717Z,12.85
2022-10-21T09:00:46.825Z,12.87
2022-10-21T09:05:54.054Z,12.85
2022-10-21T09:11:14.369Z,12.96
2022-10-21T09:16:24.928Z,13.03
2022-10-21T09:22:34.357Z,13.04
2022-10-21T09:27:54.825Z,13.03
2022-10-21T09:32:59.610Z,13.05
2022-10-21T09:38:26.096Z,13.04
2022-10-21T09:43:28.456Z,13.05
2022-10-21T09:48:55.061Z,13.09
2022-10-21T09:54:20.732Z,13.16
2022-10-21T09:59:23.455Z,13.23
2022-10-21T10:04:33.068Z,13.27
2022-10-21T10:09:36.959Z,13.37
2022-10-21T10:14:43.189Z,13.37
2022-10-21T10:20:04.705Z,13.45
2022-10-21T10:25:12.200Z,13.47
2022-10-21T10:30:14.471Z,13.54
2022-10-21T10:35:29.251Z,13.58
2022-10-21T10:40:39.707Z,13.62
2022-10-21T10:45:55.065Z,13.67
2022-10-21T10:50:58.081Z,13.74
2022-10-21T10:56:05.644Z,13.83
2022-10-21T11:01:13.765Z,13.89
2022-10-21T11:06:22.382Z,13.94
2022-10-21T11:11:30.456Z,14.01
2022-10-21T11:16:45.157Z,14.14
2022-10-21T11:22:31.800Z,14.17
2022-10-21T11:27:46.148Z,14.14
2022-10-21T11:33:02.865Z,14.24
2022-10-21T11:38:23.244Z,14.29
2022-10-21T11:43:33.795Z,14.32
2022-10-21T11:48:51.308Z,14.33
2022-10-21T11:54:20.185Z,14.34
2022-10-21T11:59:29.001Z,14.31
2022-10-21T12:05:02.501Z,14.33
2022-10-21T12:10:15.041Z,14.40
2022-10-21T12:15:31.931Z,14.40
2022-10-21T12:20:33.560Z,14.40
2022-10-21T12:25:47.340Z,14.36
2022-10-21T12:30:56.456Z,14.40
2022-10-21T12:36:15.980Z,14.40
2022-10-21T12:41:23.397Z,14.39
2022-10-21T12:46:28.206Z,14.39
2022-10-21T12:51:31.671Z,14.30
2022-10-21T12:56:42.193Z,14.26
2022-10-21T13:01:46.582Z,14.15
2022-10-21T13:06:50.919Z,13.99
2022-10-21T13:12:03.435Z,13.99
2022-10-21T13:17:53.199Z,13.76
2022-10-21T13:23:29.297Z,13.75
2022-10-21T13:28:31.101Z,13.51
2022-10-21T13:33:34.545Z,13.57
2022-10-21T13:38:37.863Z,13.47
2022-10-21T13:43:45.457Z,13.30
2022-10-21T13:48:48.539Z,13.29
2022-10-21T13:53:54.504Z,13.28
2022-10-21T13:58:56.743Z,13.17
2022-10-21T14:04:20.012Z,13.10
2022-10-21T14:09:32.496Z,13.00
2022-10-21T14:14:38.131Z,12.97
2022-10-21T14:19:39.664Z,12.97
2022-10-21T14:24:49.467Z,12.92
2022-10-21T14:29:51.324Z,12.81
2022-10-21T14:35:10.821Z,12.86
2022-10-21T14:40:26.605Z,12.82
2022-10-21T14:45:33.785Z,12.58
2022-10-21T14:50:35.643Z,12.74
2022-10-21T14:55:39.639Z,12.77
2022-10-21T15:00:41.775Z,12.64
2022-10-21T15:05:48.817Z,12.63
2022-10-21T15:10:56.794Z,12.64
2022-10-21T15:15:59.426Z,12.67
2022-10-21T15:21:09.144Z,12.54
2022-10-21T15:26:14.854Z,12.62
2022-10-21T15:31:21.431Z,12.58
2022-10-21T15:36:24.016Z,12.51
2022-10-21T15:41:25.902Z,12.48
2022-10-21T15:46:29.326Z,12.42
2022-10-21T15:51:30.849Z,12.39
2022-10-21T15:56:32.362Z,12.39
2022-10-21T16:01:33.887Z,12.45
2022-10-21T16:06:35.407Z,12.41
2022-10-21T16:11:41.092Z,12.43
2022-10-21T16:16:52.831Z,12.36
2022-10-21T16:21:54.549Z,12.33
2022-10-21T16:26:56.055Z,12.34
2022-10-21T16:31:57.562Z,12.29
2022-10-21T16:37:00.940Z,12.32
2022-10-21T16:42:02.437Z,12.13
2022-10-21T16:47:06.016Z,12.12
2022-10-21T16:52:08.579Z,12.10
2022-10-21T16:57:10.067Z,12.18
2022-10-21T17:02:17.578Z,12.24
2022-10-21T17:07:19.202Z,12.25
2022-10-21T17:12:20.729Z,12.26
2022-10-21T17:17:22.310Z,12.22
2022-10-21T17:22:23.839Z,12.28
2022-10-21T17:27:25.348Z,12.17
2022-10-21T17:32:27.053Z,12.10
2022-10-21T17:37:28.780Z,12.21
2022-10-21T17:42:30.286Z,12.04
2022-10-21T17:47:31.829Z,12.09
2022-10-21T17:52:33.643Z,12.14
2022-10-21T17:57:35.265Z,12.14
2022-10-21T18:02:37.369Z,12.26
2022-10-21T18:07:39.356Z,12.26
2022-10-21T18:12:41.279Z,12.16
2022-10-21T18:17:43.425Z,12.27
2022-10-21T18:22:45.708Z,12.30
2022-10-21T18:27:47.258Z,12.31
2022-10-21T18:32:48.793Z,12.39
2022-10-21T18:37:52.128Z,12.19
2022-10-21T18:42:54.309Z,12.33
2022-10-21T18:47:55.939Z,12.28
2022-10-21T18:52:57.875Z,12.35
2022-10-21T18:57:59.375Z,12.38
2022-10-21T19:03:00.932Z,12.35
2022-10-21T19:08:02.494Z,12.24
2022-10-21T19:13:03.993Z,12.32
2022-10-21T19:18:05.496Z,12.38
2022-10-21T19:23:07.658Z,12.26
2022-10-21T19:28:09.202Z,12.33
2022-10-21T19:33:10.693Z,12.35
2022-10-21T19:38:20.787Z,12.28
2022-10-21T19:43:33.631Z,12.34
2022-10-21T19:48:36.530Z,12.38
2022-10-21T19:53:38.242Z,12.39
2022-10-21T19:58:40.171Z,12.27
2022-10-21T20:03:43.321Z,12.33
2022-10-21T20:08:44.995Z,12.44
2022-10-21T20:13:47.705Z,12.44
2022-10-21T20:18:49.668Z,12.48
2022-10-21T20:23:51.251Z,12.39
2022-10-21T20:28:52.879Z,12.46
2022-10-21T20:33:54.507Z,12.42
2022-10-21T20:38:57.314Z,12.48
2022-10-21T20:43:58.787Z,12.42
2022-10-21T20:49:00.917Z,12.51
2022-10-21T20:54:06.014Z,12.48
2022-10-21T20:59:09.654Z,12.61
2022-10-21T21:04:13.446Z,12.61
2022-10-21T21:14:37.878Z,12.62
2022-10-21T21:19:39.419Z,12.68
2022-10-21T21:24:41.782Z,12.72
2022-10-21T21:29:43.363Z,12.59
2022-10-21T21:34:44.882Z,12.60
2022-10-21T21:39:46.386Z,12.65
2022-10-21T21:44:47.907Z,12.56
2022-10-21T21:49:49.686Z,12.61
2022-10-21T21:54:54.408Z,12.54
2022-10-21T21:59:56.253Z,12.55
2022-10-21T22:04:57.802Z,12.48
2022-10-21T22:09:59.329Z,12.59
2022-10-21T22:15:00.831Z,12.59
2022-10-21T22:20:02.499Z,12.61
2022-10-21T22:25:09.507Z,12.57
2022-10-21T22:30:13.762Z,12.57
2022-10-21T22:35:15.259Z,12.52
2022-10-21T22:40:16.795Z,12.59
2022-10-21T22:45:18.306Z,12.62
2022-10-21T22:50:19.856Z,12.63
2022-10-21T22:55:21.413Z,12.56
2022-10-21T23:00:22.973Z,12.56
2022-10-21T23:05:24.520Z,12.45
2022-10-21T23:10:26.025Z,12.52
2022-10-21T23:15:27.493Z,12.40
2022-10-21T23:20:29.195Z,12.52
2022-10-21T23:25:30.906Z,12.60
2022-10-21T23:30:32.418Z,12.53
2022-10-21T23:35:33.945Z,12.53
2022-10-21T23:40:35.445Z,12.46
2022-10-21T23:45:37.058Z,12.50
2022-10-21T23:50:42.330Z,12.56
2022-10-21T23:55:45.550Z,12.68
